Maryland METAR Reports


Distance/Direction noted is from Ellicott City, MD as the crow flies

KCBE - Cumberland - 118 miles WNW
Updated: Wed, 04/23/2014 9:13 AM
Overcast
Overcast
 Wind from NW
Wind: NW 5 mph, Gust: 10 mph
Temperature: 45°F
Wind Chill: 42°F
Dew Point: 32°F
Humidity: 61%
Barometer: 29.93 inHg
Clouds: Overcast
Visibility: 10 miles
Cloud Details: Overcast 3500 ft
2014/04/23 13:13 KCBE 231313Z AUTO 32004G09KT 271V331 10SM OVC035 07/00 A2993 RMK AO1
KHGR - Hagerstown - 57 miles NW
Updated: Wed, 04/23/2014 8:53 AM
Overcast
Overcast
 Wind from NW
Wind: NW 17 mph, Gust: 30 mph
Temperature: 45°F
Wind Chill: 38°F
Dew Point: 30°F
Humidity: 57%
Barometer: 29.83 inHg
Clouds: Overcast
Visibility: 10 miles
Cloud Details: Overcast 3900 ft
2014/04/23 12:53 KHGR 231253Z 32015G26KT 10SM OVC039 07/M01 A2983 RMK AO2 PK WND 31028/1202 SLP112 T00721006
 
KFDK - Frederick - 34 miles NW
Updated: Wed, 04/23/2014 8:55 AM

 
Visibility: 48 miles
2014/04/23 12:55 KFDK 231255Z 30015G25 10SM BKN039 09/03 A2985
KGAI - Gaithersburg - 26 miles SW
Updated: Wed, 04/23/2014 9:15 AM
Overcast
Overcast
 Wind from NW
Wind: NW 13 mph, Gust: 33 mph
Temperature: 48°F
Wind Chill: 43°F
Dew Point: 30°F
Humidity: 50%
Barometer: 29.83 inHg
Clouds: Overcast
Visibility: 10 miles
Cloud Details: Mostly Cloudy 4200 ft
Overcast 5000 ft
2014/04/23 13:15 KGAI 231315Z AUTO 31011G29KT 10SM BKN042 OVC050 09/M01 A2983 RMK AO1
 
KBWI - BWI Airport - 15 miles SE
Updated: Wed, 04/23/2014 8:54 AM
Mostly Cloudy
Mostly Cloudy
 Wind from WNW
Wind: WNW 22 mph, Gust: 36 mph
Temperature: 50°F
Wind Chill: 43°F
Dew Point: 30°F
Humidity: 47%
Barometer: 29.78 inHg
Clouds: Mostly Cloudy
Visibility: 10 miles
Cloud Details: Mostly Cloudy 4400 ft
2014/04/23 12:54 KBWI 231254Z 30019G31KT 10SM BKN044 10/M01 A2978 RMK AO2 PK WND 29031/1252 SLP084 T01001006
KNAK - Annapolis - 32 miles SSE
Updated: Wed, 04/23/2014 8:54 AM
Few Clouds
Few Clouds
 Wind from NW
Wind: NW 15 mph, Gust: 31 mph
Temperature: 52°F
Dew Point: 34°F
Humidity: 50%
Barometer: 29.78 inHg
Clouds: Few Clouds
Visibility: 10 miles
Cloud Details: Few Clouds 4900 ft
2014/04/23 12:54 KNAK 231254Z AUTO 31013G27KT 10SM FEW049 11/01 A2978 RMK AO2 PK WND 30027/1224 SLP085 T01060011
 
KESN - Easton - 63 miles SE
Updated: Wed, 04/23/2014 8:50 AM
Partly Cloudy
Partly Cloudy
 Wind from NNW
Wind: NNW 21 mph, Gust: 33 mph
Temperature: 54°F
Dew Point: 37°F
Humidity: 54%
Barometer: 29.79 inHg
Clouds: Partly Cloudy
Visibility: 10 miles
Cloud Details: Partly Cloudy 4000 ft
2014/04/23 12:50 KESN 231250Z 33018G29KT 10SM SCT040 12/03 A2979
KSBY - Salisbury - 112 miles SE
Updated: Wed, 04/23/2014 8:54 AM
Clear
Clear
 Wind from NW
Wind: NW 16 mph, Gust: 33 mph
Temperature: 57°F
Dew Point: 36°F
Humidity: 44%
Barometer: 29.70 inHg
Clouds: Clear
Visibility: 10 miles
2014/04/23 12:54 KSBY 231254Z 31014G29KT 10SM CLR 14/02 A2970 RMK AO2 PK WND 32034/1234 SLP060 T01390017